createdAt,value
2022-09-12T00:01:23.919Z,26.50
2022-09-12T00:03:58.283Z,26.30
2022-09-12T00:06:29.722Z,26.20
2022-09-12T00:09:01.074Z,26.20
2022-09-12T00:11:29.835Z,26.10
2022-09-12T00:14:00.320Z,26.10
2022-09-12T00:19:44.228Z,26.50
2022-09-12T00:22:12.376Z,26.30
2022-09-12T00:24:40.531Z,26.20
2022-09-12T00:27:08.785Z,26.20
2022-09-12T00:29:36.937Z,26.10
2022-09-12T00:32:05.296Z,26.10
2022-09-12T00:34:33.386Z,26.30
2022-09-12T00:37:01.564Z,26.60
2022-09-12T00:39:29.899Z,26.70
2022-09-12T00:41:58.581Z,26.70
2022-09-12T00:44:26.651Z,26.70
2022-09-12T00:47:01.462Z,26.70
2022-09-12T00:49:31.545Z,26.50
2022-09-12T00:52:07.464Z,26.30
2022-09-12T00:54:43.556Z,26.20
2022-09-12T00:57:14.299Z,26.10
2022-09-12T00:59:57.645Z,26.10
2022-09-12T01:02:26.324Z,26.10
2022-09-12T01:04:54.695Z,26.30
2022-09-12T01:07:23.047Z,26.50
2022-09-12T01:09:51.282Z,26.50
2022-09-12T01:12:19.632Z,26.30
2022-09-12T01:14:47.899Z,26.10
2022-09-12T01:17:16.349Z,26.10
2022-09-12T01:20:24.384Z,26.10
2022-09-12T01:23:10.784Z,26.00
2022-09-12T01:26:18.542Z,26.20
2022-09-12T01:29:05.686Z,26.30
2022-09-12T01:32:00.984Z,26.50
2022-09-12T01:34:47.406Z,26.60
2022-09-12T01:37:27.213Z,26.70
2022-09-12T01:40:21.264Z,26.50
2022-09-12T01:43:01.395Z,26.20
2022-09-12T01:45:39.299Z,26.10
2022-09-12T01:48:12.118Z,26.00
2022-09-12T01:51:05.338Z,26.00
2022-09-12T01:53:45.400Z,25.90
2022-09-12T01:56:19.371Z,26.20
2022-09-12T01:59:33.459Z,26.40
2022-09-12T02:02:04.329Z,26.20
2022-09-12T02:05:04.046Z,26.00
2022-09-12T02:07:55.088Z,25.90
2022-09-12T02:10:30.405Z,25.90
2022-09-12T02:13:19.660Z,25.80
2022-09-12T02:15:54.242Z,25.80
2022-09-12T02:18:25.038Z,26.10
2022-09-12T02:20:55.125Z,26.30
2022-09-12T02:23:27.100Z,26.40
2022-09-12T02:26:05.169Z,26.40
2022-09-12T02:28:42.163Z,26.40
2022-09-12T02:31:45.633Z,26.50
2022-09-12T02:34:27.892Z,26.30
2022-09-12T02:37:04.128Z,26.00
2022-09-12T02:39:33.141Z,25.90
2022-09-12T02:42:03.273Z,25.80
2022-09-12T02:44:34.318Z,25.80
2022-09-12T02:47:18.590Z,25.80
2022-09-12T02:49:47.558Z,25.90
2022-09-12T02:52:16.324Z,26.10
2022-09-12T02:54:45.339Z,26.30
2022-09-12T02:57:22.594Z,26.00
2022-09-12T02:59:55.675Z,25.90
2022-09-12T03:02:54.946Z,25.80
2022-09-12T03:05:41.684Z,25.80
2022-09-12T03:08:34.093Z,25.80
2022-09-12T03:11:20.771Z,26.00
2022-09-12T03:14:12.066Z,26.20
2022-09-12T03:16:43.094Z,26.30
2022-09-12T03:19:24.516Z,26.50
2022-09-12T03:22:21.020Z,26.60
2022-09-12T03:24:52.046Z,26.50
2022-09-12T03:27:23.620Z,26.30
2022-09-12T03:29:53.441Z,26.10
2022-09-12T03:32:21.705Z,25.90
2022-09-12T03:34:49.775Z,25.80
2022-09-12T03:37:17.926Z,25.80
2022-09-12T03:39:46.310Z,25.80
2022-09-12T03:42:14.322Z,25.70
2022-09-12T03:44:42.440Z,25.90
2022-09-12T03:47:11.401Z,26.20
2022-09-12T03:49:39.677Z,26.40
2022-09-12T03:52:07.662Z,26.20
2022-09-12T03:54:35.909Z,26.00
2022-09-12T03:57:04.170Z,25.90
2022-09-12T03:59:32.802Z,25.80
2022-09-12T04:02:00.984Z,25.70
2022-09-12T04:04:29.157Z,25.70
2022-09-12T04:06:57.301Z,26.00
2022-09-12T04:09:25.769Z,26.30
2022-09-12T04:11:53.815Z,26.50
2022-09-12T04:14:22.223Z,26.60
2022-09-12T04:16:50.281Z,26.50
2022-09-12T04:19:18.449Z,26.60
2022-09-12T04:21:47.010Z,26.50
2022-09-12T04:24:15.112Z,26.20
2022-09-12T04:26:43.269Z,26.10
2022-09-12T04:29:13.006Z,25.90
2022-09-12T04:31:41.683Z,25.80
2022-09-12T04:34:10.260Z,25.70
2022-09-12T04:36:39.081Z,25.70
2022-09-12T04:39:07.276Z,25.70
2022-09-12T04:41:38.112Z,25.80
2022-09-12T04:44:09.668Z,25.90
2022-09-12T04:46:40.209Z,26.00
2022-09-12T04:49:09.206Z,25.80
2022-09-12T04:51:39.331Z,25.70
2022-09-12T04:54:15.485Z,25.60
2022-09-12T04:56:46.182Z,25.60
2022-09-12T04:59:16.292Z,25.70
2022-09-12T05:01:44.531Z,25.60
2022-09-12T05:04:13.651Z,25.80
2022-09-12T05:06:43.479Z,25.90
2022-09-12T05:09:13.666Z,25.90
2022-09-12T05:14:32.127Z,26.10
2022-09-12T05:17:00.503Z,26.00
2022-09-12T05:19:29.844Z,26.10
2022-09-12T05:21:58.325Z,25.90
2022-09-12T05:24:26.876Z,25.70
2022-09-12T05:26:55.014Z,25.60
2022-09-12T05:29:23.133Z,25.50
2022-09-12T05:31:51.287Z,25.50
2022-09-12T05:34:20.583Z,25.40
2022-09-12T05:36:48.823Z,25.40
2022-09-12T05:39:17.027Z,25.70
2022-09-12T05:41:45.171Z,26.00
2022-09-12T05:44:14.301Z,25.90
2022-09-12T05:46:45.070Z,25.70
2022-09-12T05:49:14.112Z,25.50
2022-09-12T05:51:44.826Z,25.40
2022-09-12T05:54:15.769Z,25.30
2022-09-12T05:56:44.925Z,25.30
2022-09-12T05:59:18.294Z,25.30
2022-09-12T06:01:47.508Z,25.70
2022-09-12T06:04:15.712Z,25.80
2022-09-12T06:06:45.751Z,25.70
2022-09-12T06:09:16.140Z,25.50
2022-09-12T06:11:45.486Z,25.50
2022-09-12T06:14:16.024Z,25.40
2022-09-12T06:16:44.504Z,25.20
2022-09-12T06:19:18.910Z,25.10
2022-09-12T06:21:48.056Z,25.00
2022-09-12T06:24:17.556Z,25.00
2022-09-12T06:26:46.269Z,25.00
2022-09-12T06:29:14.929Z,25.00
2022-09-12T06:31:44.398Z,25.00
2022-09-12T06:34:15.221Z,25.20
2022-09-12T06:36:46.302Z,25.20
2022-09-12T06:39:17.762Z,25.10
2022-09-12T06:41:46.516Z,25.00
2022-09-12T06:44:20.163Z,24.90
2022-09-12T06:46:49.003Z,24.90
2022-09-12T06:49:17.096Z,24.90
2022-09-12T06:51:45.377Z,24.90
2022-09-12T06:54:15.084Z,25.10
2022-09-12T06:56:43.494Z,25.30
2022-09-12T06:59:11.648Z,25.40
2022-09-12T07:01:40.333Z,25.30
2022-09-12T07:04:08.790Z,25.50
2022-09-12T07:06:42.078Z,25.50
2022-09-12T07:09:14.164Z,25.70
2022-09-12T07:11:43.486Z,25.90
2022-09-12T07:14:13.861Z,25.90
2022-09-12T07:16:42.515Z,25.80
2022-09-12T07:19:11.610Z,25.80
2022-09-12T07:21:40.212Z,25.70
2022-09-12T07:24:10.556Z,25.80
2022-09-12T07:26:40.524Z,26.00
2022-09-12T07:29:35.433Z,26.10
2022-09-12T07:32:01.711Z,27.00
2022-09-12T07:34:29.927Z,29.20
2022-09-12T07:36:58.268Z,31.00
2022-09-12T07:39:26.596Z,30.00
2022-09-12T07:41:54.877Z,28.70
2022-09-12T07:44:23.061Z,28.50
2022-09-12T07:46:51.125Z,28.20
2022-09-12T07:49:19.590Z,29.60
2022-09-12T07:51:47.605Z,28.80
2022-09-12T07:54:15.812Z,28.70
2022-09-12T07:56:44.026Z,29.00
2022-09-12T07:59:12.209Z,29.50
2022-09-12T08:01:40.579Z,30.40
2022-09-12T08:04:08.743Z,29.60
2022-09-12T08:06:36.995Z,28.80
2022-09-12T08:09:06.107Z,28.40
2022-09-12T08:11:34.800Z,28.30
2022-09-12T08:14:03.229Z,28.10
2022-09-12T08:16:32.699Z,27.90
2022-09-12T08:19:04.861Z,28.10
2022-09-12T08:21:34.324Z,28.40
2022-09-12T08:24:05.444Z,28.40
2022-09-12T08:26:35.204Z,28.60
2022-09-12T08:29:03.924Z,28.60
2022-09-12T08:31:32.582Z,29.70
2022-09-12T08:34:00.837Z,30.60
2022-09-12T08:36:29.426Z,32.10
2022-09-12T08:39:06.264Z,30.60
2022-09-12T08:41:48.987Z,29.50
2022-09-12T08:44:32.415Z,28.70
2022-09-12T08:47:18.931Z,28.30
2022-09-12T08:49:50.250Z,28.10
2022-09-12T08:52:38.493Z,27.90
2022-09-12T08:55:17.551Z,27.90
2022-09-12T08:57:46.326Z,29.10
2022-09-12T09:00:16.999Z,29.80
2022-09-12T09:02:51.284Z,29.70
2022-09-12T09:05:25.311Z,29.30
2022-09-12T09:07:59.429Z,28.90
2022-09-12T09:10:33.729Z,29.10
2022-09-12T09:13:07.805Z,28.80
2022-09-12T09:16:10.140Z,28.80
2022-09-12T09:18:39.988Z,32.80
2022-09-12T09:21:35.920Z,33.20
2022-09-12T09:24:14.505Z,33.20
2022-09-12T09:27:00.937Z,32.10
2022-09-12T09:29:37.441Z,32.30
2022-09-12T09:32:15.858Z,31.00
2022-09-12T09:34:44.222Z,30.20
2022-09-12T09:37:21.658Z,30.10
2022-09-12T09:40:18.095Z,30.50
2022-09-12T09:43:11.731Z,30.60
2022-09-12T09:45:44.574Z,30.90
2022-09-12T09:48:33.401Z,30.80
2022-09-12T09:51:04.546Z,30.90
2022-09-12T09:53:54.366Z,31.50
2022-09-12T09:56:31.671Z,31.40
2022-09-12T09:59:20.116Z,32.10
2022-09-12T10:01:58.174Z,32.20
2022-09-12T10:04:29.604Z,32.50
2022-09-12T10:07:00.748Z,32.50
2022-09-12T10:09:31.774Z,31.60
2022-09-12T10:12:02.718Z,31.30
2022-09-12T10:14:37.071Z,31.40
2022-09-12T10:17:44.000Z,31.30
2022-09-12T10:20:43.389Z,31.60
2022-09-12T10:23:26.542Z,31.90
2022-09-12T10:25:58.253Z,31.50
2022-09-12T10:28:33.009Z,31.10
2022-09-12T10:31:01.343Z,30.80
2022-09-12T10:33:30.532Z,31.00
2022-09-12T10:35:58.851Z,31.20
2022-09-12T10:38:32.821Z,31.80
2022-09-12T10:41:09.561Z,32.00
2022-09-12T10:43:42.308Z,31.80
2022-09-12T10:46:16.381Z,31.50
2022-09-12T10:48:49.296Z,31.50
2022-09-12T10:51:28.174Z,31.60
2022-09-12T10:54:03.246Z,31.10
2022-09-12T10:57:05.207Z,30.90
2022-09-12T10:59:33.550Z,30.80
2022-09-12T11:02:16.750Z,31.20
2022-09-12T11:05:03.348Z,32.00
2022-09-12T11:07:54.341Z,32.00
2022-09-12T11:10:36.315Z,32.00
2022-09-12T11:13:34.807Z,32.00
2022-09-12T11:16:14.908Z,31.60
2022-09-12T11:19:03.768Z,31.90
2022-09-12T11:22:02.634Z,31.90
2022-09-12T11:24:46.149Z,31.50
2022-09-12T11:27:20.786Z,31.70
2022-09-12T11:29:53.042Z,31.60
2022-09-12T11:33:03.608Z,31.70
2022-09-12T11:35:55.409Z,31.50
2022-09-12T11:38:39.792Z,31.80
2022-09-12T11:41:29.241Z,31.80
2022-09-12T11:44:18.052Z,32.20
2022-09-12T11:46:51.610Z,32.00
2022-09-12T11:49:35.726Z,32.00
2022-09-12T11:52:27.704Z,32.10
2022-09-12T11:55:06.510Z,31.80
2022-09-12T11:57:55.577Z,31.70
2022-09-12T12:00:36.841Z,31.70
2022-09-12T12:03:12.408Z,31.40
2022-09-12T12:06:12.908Z,31.80
2022-09-12T12:08:44.047Z,31.70
2022-09-12T12:11:32.920Z,31.50
2022-09-12T12:14:42.724Z,31.70
2022-09-12T12:17:25.862Z,31.70
2022-09-12T12:20:08.388Z,31.80
2022-09-12T12:22:37.252Z,31.90
2022-09-12T12:25:18.353Z,31.60
2022-09-12T12:27:58.323Z,31.50
2022-09-12T12:30:32.775Z,31.40
2022-09-12T12:33:02.274Z,31.70
2022-09-12T12:35:36.722Z,31.80
2022-09-12T12:38:26.916Z,31.20
2022-09-12T12:41:15.668Z,31.20
2022-09-12T12:43:44.834Z,31.70
2022-09-12T12:46:15.616Z,32.10
2022-09-12T12:49:09.599Z,32.10
2022-09-12T12:51:40.572Z,31.50
2022-09-12T12:54:33.715Z,31.40
2022-09-12T12:57:15.445Z,31.40
2022-09-12T12:59:51.089Z,31.40
2022-09-12T13:02:31.249Z,31.40
2022-09-12T13:05:02.840Z,31.60
2022-09-12T13:07:38.373Z,31.50
2022-09-12T13:10:08.494Z,31.40
2022-09-12T13:12:47.914Z,31.50
2022-09-12T13:15:37.464Z,31.50
2022-09-12T13:18:11.401Z,31.50
2022-09-12T13:21:03.290Z,31.50
2022-09-12T13:23:33.061Z,31.40
2022-09-12T13:26:02.590Z,31.10
2022-09-12T13:28:31.892Z,30.50
2022-09-12T13:31:09.012Z,30.60
2022-09-12T13:33:45.285Z,30.70
2022-09-12T13:36:38.468Z,30.80
2022-09-12T13:39:20.931Z,31.10
2022-09-12T13:42:26.235Z,31.00
2022-09-12T13:45:18.590Z,30.70
2022-09-12T13:47:49.422Z,30.90
2022-09-12T13:50:26.451Z,30.60
2022-09-12T13:53:01.163Z,30.50
2022-09-12T13:55:43.885Z,30.30
2022-09-12T13:58:25.764Z,30.40
2022-09-12T14:01:08.150Z,30.30
2022-09-12T14:03:49.449Z,30.20
2022-09-12T14:06:18.402Z,30.60
2022-09-12T14:08:49.732Z,30.90
2022-09-12T14:11:38.840Z,31.30
2022-09-12T14:14:18.570Z,31.30
2022-09-12T14:16:46.948Z,30.90
2022-09-12T14:19:15.344Z,30.50
2022-09-12T14:21:43.756Z,30.50
2022-09-12T14:24:13.137Z,30.50
2022-09-12T14:26:44.504Z,30.30
2022-09-12T14:29:16.565Z,30.00
2022-09-12T14:31:45.869Z,30.40
2022-09-12T14:34:17.249Z,30.60
2022-09-12T14:36:53.362Z,30.70
2022-09-12T14:39:21.587Z,30.50
2022-09-12T14:41:50.699Z,30.40
2022-09-12T14:44:27.660Z,30.20
2022-09-12T14:47:10.971Z,30.00
2022-09-12T14:49:39.674Z,30.20
2022-09-12T14:52:24.316Z,30.10
2022-09-12T14:55:31.952Z,30.00
2022-09-12T14:58:20.568Z,30.10
2022-09-12T15:01:24.292Z,29.90
2022-09-12T15:03:54.567Z,30.00
2022-09-12T15:06:30.857Z,30.10
2022-09-12T15:09:02.934Z,30.10
2022-09-12T15:11:31.167Z,30.20
2022-09-12T15:13:59.803Z,30.30
2022-09-12T15:16:28.015Z,30.40
2022-09-12T15:18:56.343Z,30.20
2022-09-12T15:21:24.867Z,30.00
2022-09-12T15:23:53.473Z,29.70
2022-09-12T15:26:26.422Z,29.30
2022-09-12T15:28:54.820Z,29.40
2022-09-12T15:31:25.134Z,29.40
2022-09-12T15:33:54.265Z,29.50
2022-09-12T15:36:23.932Z,29.80
2022-09-12T15:38:53.337Z,30.00
2022-09-12T15:41:25.729Z,30.10
2022-09-12T15:43:54.235Z,30.00
2022-09-12T15:46:22.387Z,30.00
2022-09-12T15:48:50.991Z,29.60
2022-09-12T15:51:22.104Z,29.70
2022-09-12T15:53:51.467Z,29.80
2022-09-12T15:56:21.651Z,30.00
2022-09-12T15:58:58.641Z,29.90
2022-09-12T16:01:29.287Z,29.70
2022-09-12T16:03:58.171Z,29.50
2022-09-12T16:06:26.531Z,29.40
2022-09-12T16:08:54.829Z,29.40
2022-09-12T16:11:27.939Z,29.40
2022-09-12T16:13:56.844Z,29.80
2022-09-12T16:16:25.177Z,30.00
2022-09-12T16:18:53.400Z,29.60
2022-09-12T16:21:21.672Z,29.30
2022-09-12T16:23:49.908Z,29.20
2022-09-12T16:26:18.403Z,29.40
2022-09-12T16:28:46.745Z,29.50
2022-09-12T16:31:15.232Z,29.30
2022-09-12T16:33:43.658Z,29.20
2022-09-12T16:36:14.909Z,29.00
2022-09-12T16:38:47.164Z,29.10
2022-09-12T16:41:16.939Z,29.40
2022-09-12T16:43:45.475Z,29.50
2022-09-12T16:46:17.843Z,29.50
2022-09-12T16:48:52.118Z,29.80
2022-09-12T16:51:24.631Z,29.80
2022-09-12T16:53:53.026Z,29.40
2022-09-12T16:56:22.074Z,29.60
2022-09-12T16:58:50.845Z,29.60
2022-09-12T17:01:24.315Z,29.60
2022-09-12T17:03:57.255Z,29.40
2022-09-12T17:06:26.803Z,29.70
2022-09-12T17:08:58.503Z,29.80
2022-09-12T17:11:29.032Z,29.60
2022-09-12T17:14:04.845Z,29.40
2022-09-12T17:16:36.386Z,29.20
2022-09-12T17:19:05.762Z,29.10
2022-09-12T17:21:34.647Z,29.10
2022-09-12T17:24:03.194Z,29.20
2022-09-12T17:26:31.490Z,29.00
2022-09-12T17:28:59.799Z,28.80
2022-09-12T17:31:28.135Z,28.90
2022-09-12T17:34:00.621Z,28.70
2022-09-12T17:36:30.233Z,28.70
2022-09-12T17:38:59.006Z,28.50
2022-09-12T17:41:29.750Z,28.50
2022-09-12T17:43:59.071Z,28.60
2022-09-12T17:46:32.104Z,28.70
2022-09-12T17:49:00.780Z,28.40
2022-09-12T17:51:31.096Z,28.40
2022-09-12T17:54:02.543Z,28.40
2022-09-12T17:56:32.404Z,28.30
2022-09-12T17:59:01.005Z,28.30
2022-09-12T18:01:30.422Z,28.00
2022-09-12T18:04:00.307Z,27.80
2022-09-12T18:06:29.786Z,27.80
2022-09-12T18:09:09.446Z,28.10
2022-09-12T18:11:37.820Z,28.10
2022-09-12T18:14:06.030Z,27.80
2022-09-12T18:16:34.382Z,27.70
2022-09-12T18:19:02.502Z,27.60
2022-09-12T18:21:31.062Z,27.60
2022-09-12T18:24:00.007Z,27.70
2022-09-12T18:26:29.418Z,27.80
2022-09-12T18:28:58.222Z,27.80
2022-09-12T18:31:29.381Z,27.80
2022-09-12T18:33:58.509Z,27.60
2022-09-12T18:36:26.818Z,27.40
2022-09-12T18:38:55.440Z,27.30
2022-09-12T18:41:24.671Z,27.40
2022-09-12T18:44:01.123Z,27.60
2022-09-12T18:46:31.044Z,27.60
2022-09-12T18:49:00.839Z,27.30
2022-09-12T18:51:31.932Z,27.20
2022-09-12T18:54:11.670Z,27.20
2022-09-12T18:56:40.308Z,27.40
2022-09-12T18:59:10.142Z,27.50
2022-09-12T19:01:39.472Z,27.60
2022-09-12T19:04:08.683Z,27.60
2022-09-12T19:06:42.708Z,27.20
2022-09-12T19:09:12.452Z,27.00
2022-09-12T19:11:43.407Z,26.90
2022-09-12T19:14:11.538Z,27.10
2022-09-12T19:16:39.645Z,27.40
2022-09-12T19:19:07.852Z,27.50
2022-09-12T19:21:36.122Z,27.20
2022-09-12T19:24:07.431Z,27.00
2022-09-12T19:26:36.759Z,26.90
2022-09-12T19:29:05.739Z,26.90
2022-09-12T19:31:33.990Z,27.10
2022-09-12T19:34:07.453Z,27.20
2022-09-12T19:36:51.167Z,27.10
2022-09-12T19:39:19.889Z,27.20
2022-09-12T19:41:48.560Z,27.10
2022-09-12T19:44:17.011Z,26.90
2022-09-12T19:46:45.386Z,26.80
2022-09-12T19:49:13.840Z,26.80
2022-09-12T19:51:42.013Z,27.00
2022-09-12T19:54:10.792Z,27.10
2022-09-12T19:56:39.220Z,27.00
2022-09-12T19:59:07.562Z,26.90
2022-09-12T20:01:35.970Z,26.80
2022-09-12T20:04:04.760Z,26.80
2022-09-12T20:06:33.248Z,27.00
2022-09-12T20:09:01.454Z,27.10
2022-09-12T20:11:29.605Z,27.20
2022-09-12T20:13:57.891Z,27.10
2022-09-12T20:16:27.697Z,26.90
2022-09-12T20:19:02.106Z,26.70
2022-09-12T20:21:32.226Z,26.70
2022-09-12T20:24:10.670Z,26.80
2022-09-12T20:26:39.283Z,27.10
2022-09-12T20:29:08.032Z,27.10
2022-09-12T20:31:38.438Z,26.80
2022-09-12T20:34:06.876Z,26.70
2022-09-12T20:36:35.455Z,26.60
2022-09-12T20:39:04.066Z,26.70
2022-09-12T20:41:34.955Z,27.00
2022-09-12T20:44:03.342Z,27.10
2022-09-12T20:46:31.491Z,27.20
2022-09-12T20:49:00.093Z,27.30
2022-09-12T20:51:28.632Z,27.10
2022-09-12T20:53:58.873Z,26.90
2022-09-12T20:56:28.860Z,26.80
2022-09-12T20:58:57.371Z,26.80
2022-09-12T21:01:27.314Z,26.80
2022-09-12T21:03:55.805Z,26.90
2022-09-12T21:06:24.410Z,26.90
2022-09-12T21:08:56.534Z,26.90
2022-09-12T21:11:24.833Z,26.90
2022-09-12T21:13:53.712Z,26.80
2022-09-12T21:16:23.402Z,27.00
2022-09-12T21:18:59.341Z,27.20
2022-09-12T21:21:27.983Z,27.10
2022-09-12T21:24:05.530Z,26.90
2022-09-12T21:26:33.987Z,26.70
2022-09-12T21:29:02.126Z,26.60
2022-09-12T21:31:30.560Z,26.50
2022-09-12T21:33:58.804Z,26.60
2022-09-12T21:36:27.098Z,26.90
2022-09-12T21:38:58.947Z,27.00
2022-09-12T21:41:27.286Z,26.80
2022-09-12T21:43:55.708Z,26.60
2022-09-12T21:46:24.002Z,26.50
2022-09-12T21:48:52.250Z,26.40
2022-09-12T21:51:20.552Z,26.80
2022-09-12T21:53:49.037Z,27.20
2022-09-12T21:56:17.342Z,27.20
2022-09-12T21:58:45.689Z,27.20
2022-09-12T22:01:16.806Z,27.20
2022-09-12T22:03:45.286Z,27.20
2022-09-12T22:06:13.891Z,27.20
2022-09-12T22:08:42.172Z,27.00
2022-09-12T22:11:11.284Z,26.80
2022-09-12T22:13:41.314Z,26.70
2022-09-12T22:16:09.833Z,26.60
2022-09-12T22:18:38.968Z,26.50
2022-09-12T22:21:11.886Z,26.60
2022-09-12T22:23:40.303Z,26.90
2022-09-12T22:26:09.124Z,27.10
2022-09-12T22:28:37.533Z,26.80
2022-09-12T22:31:05.691Z,26.60
2022-09-12T22:33:33.948Z,26.40
2022-09-12T22:36:02.253Z,26.40
2022-09-12T22:38:30.506Z,26.60
2022-09-12T22:40:58.670Z,27.00
2022-09-12T22:43:27.347Z,27.00
2022-09-12T22:45:55.436Z,27.00
2022-09-12T22:48:23.825Z,26.90
2022-09-12T22:50:52.032Z,26.90
2022-09-12T22:53:20.391Z,26.90
2022-09-12T22:55:48.883Z,26.70
2022-09-12T22:58:17.065Z,26.50
2022-09-12T23:00:49.980Z,26.40
2022-09-12T23:03:21.887Z,26.40
2022-09-12T23:05:50.474Z,26.30
2022-09-12T23:08:19.198Z,26.50
2022-09-12T23:10:47.445Z,26.90
2022-09-12T23:13:15.872Z,27.00
2022-09-12T23:15:44.135Z,26.60
2022-09-12T23:18:12.208Z,26.40
2022-09-12T23:20:40.472Z,26.30
2022-09-12T23:23:08.795Z,26.30
2022-09-12T23:25:37.158Z,26.30
2022-09-12T23:28:05.232Z,26.60
2022-09-12T23:30:33.553Z,26.80
2022-09-12T23:33:01.695Z,26.90
2022-09-12T23:35:29.917Z,26.80
2022-09-12T23:37:58.230Z,26.90
2022-09-12T23:40:26.436Z,26.80
2022-09-12T23:42:54.717Z,26.60
2022-09-12T23:45:22.986Z,26.40
2022-09-12T23:47:51.237Z,26.40
2022-09-12T23:50:19.369Z,26.30
2022-09-12T23:52:47.639Z,26.60
2022-09-12T23:55:15.879Z,26.90
2022-09-12T23:57:44.088Z,27.00
